x

Southeast Hawaii - 205 Nm Southeast Of Hilo, Hi (51004) Wave Buoy

6:50am - Sat 26th Jul 2014 All times are HST. -10 hours from GMT.

  • Sig Wave height 6.9ft
  • Swell Direction
  • Peak Period 8s
  • Average Period 6s
  • Wind
    22mph, 25mph gusts
  • Sea Temp 80°f
  • Air Temp 80°f
  • Sea Pressure 1012.1mb
  • Southeast Hawaii - 205 Nm Southeast Of Hilo, Hi
  • Southeast Hawaii - 205 Nm Southeast Of Hilo, Hi

More Historic Weather Station data

Upgrade to MSW Pro to gain access to the past 30 days of data for over 8000 Wavebouys and Weather Stations around the globe.

Join Pro

Comparision Forecast

View Surf forecast
   
Sat 07/26 6:50am 7ft 8s 6s 22 25 mph 1012.1mb 80f 80f
5:50am 7ft 8s 6s 22 25 mph 1011.4mb 80f 79f
4:50am 6.5ft 9s 6s 20 25 mph 1011.1mb 80f 79f
3:50am 6.5ft 7s 6s 18 22 mph 1011.2mb 80f 79f
2:50am 7ft 9s 6s 18 22 mph 1011.9mb 80f 79f
1:50am 6ft 8s 6s 20 25 mph 1012.4mb 80f 79f
12:50am 7ft 9s 6s 18 22 mph 1013.2mb 80f 79f
Fri 07/25 11:50pm 6.5ft 8s 6s 18 20 mph 1013.9mb 80f 79f
10:50pm 7ft 9s 6s 18 22 mph 1014mb 80f 79f
9:50pm 6.5ft 9s 6s 20 25 mph 1013.9mb 80f 79f
8:50pm 7ft 8s 6s 20 25 mph 1013.5mb 80f 79f
7:50pm 7ft 8s 6s 20 22 mph 1012.9mb 80f 79f
6:50pm 7ft 8s 6s 22 25 mph 1012.1mb 80f 79f
5:50pm 7ft 7s 6s 20 25 mph 1011.7mb 80f 80f
4:50pm 7ft 8s 6s 20 22 mph 1011.6mb 80f 80f
3:50pm 7ft 9s 6s 18 20 mph 1011.8mb 80f 80f
2:50pm 6.5ft 7s 6s 22 25 mph 1012.1mb 80f 80f
1:50pm 6ft 8s 5s 20 25 mph 1012.5mb 80f 79f
12:50pm 6ft 8s 6s 20 25 mph 1012.9mb 80f 79f
11:50am 6.5ft 8s 6s 18 25 mph 1013.5mb 80f 78f
10:50am 6ft 8s 6s 20 22 mph 1013.8mb 80f 79f
9:50am 6ft 8s 6s 18 22 mph 1014.2mb 80f 79f
8:50am 6.5ft 9s 6s 18 22 mph 1014.4mb 80f 79f
7:50am 6ft 9s 6s 20 22 mph 1013.8mb 80f 79f
6:50am 6.5ft 9s 6s 18 20 mph 1013.6mb 80f 79f
5:50am 6ft 9s 6s 18 22 mph 1013.2mb 80f 78f
4:50am 6ft 9s 6s 16 20 mph 1012.9mb 80f 78f
3:50am 6ft 9s 6s 18 20 mph 1012.9mb 80f 78f
2:50am 6.5ft 8s 6s 16 18 mph 1013.4mb 80f 78f
1:50am 6ft 8s 6s 16 20 mph 1013.5mb 80f 78f
12:50am 7ft 8s 6s 18 22 mph 1014.1mb 80f 78f
Thu 07/24 11:50pm 6ft 8s 6s 18 22 mph 1014.9mb 80f 78f
10:50pm 6.5ft 8s 6s 18 22 mph 1015.4mb 80f 79f
9:50pm 6.5ft 8s 6s 18 22 mph 1015.5mb 80f 79f
8:50pm 7ft 8s 6s 18 22 mph 1015.3mb 80f 79f
7:50pm 6.5ft 8s 6s 18 22 mph 1014.7mb 80f 79f
6:50pm 6.5ft 8s 6s 22 27 mph 1014.1mb 80f 77f
5:50pm 6.5ft 9s 6s 20 22 mph 1013.6mb 80f 79f
4:50pm 6ft 8s 6s 18 22 mph 1013.2mb 80f 79f
3:50pm 7ft 8s 6s 18 20 mph 1013.2mb 80f 79f
2:50pm 7ft 8s 6s 18 20 mph 1013.7mb 80f 79f
1:50pm 7ft 8s 6s 18 20 mph 1014.1mb 80f 79f
12:50pm 6ft 8s 6s 16 18 mph 1014.7mb 80f 78f
11:50am 7ft 9s 6s 13 18 mph 1015.1mb 80f 78f
10:50am 7.5ft 9s 6s 16 20 mph 1015.7mb 80f 78f
9:50am 7ft 8s 6s 16 20 mph 1015.6mb 80f 78f
8:50am 7ft 9s 6s 18 20 mph 1015.9mb 80f 78f
7:50am 7.5ft 8s 6s 18 20 mph 1015.9mb 80f 78f
6:50am 7ft 8s 6s 18 22 mph 1015.4mb 80f 78f
5:50am 7ft 9s 6s 16 22 mph 1015mb 80f 78f
4:50am 7.5ft 8s 6s 16 18 mph 1014.8mb 80f 78f
3:50am 7ft 9s 6s 18 20 mph 1014.6mb 80f 78f
2:50am 8ft 9s 6s 18 20 mph 1014.7mb 80f 78f
1:50am 7.5ft 8s 6s 18 22 mph 1015.1mb 80f 78f
12:50am 7.5ft 8s 6s 18 20 mph 1015.8mb 80f 78f
Wed 07/23 11:50pm 7ft 8s 6s 18 20 mph 1016.2mb 80f 78f
10:50pm 7.5ft 9s 6s 18 22 mph 1016.3mb 80f 78f
9:50pm 7ft 9s 6s 20 25 mph 1016.4mb 80f 79f
8:50pm 7ft 9s 6s 18 20 mph 1016.3mb 80f 79f
7:50pm 6.5ft 9s 6s 18 20 mph 1015.6mb 80f 79f
6:50pm 6ft 8s 6s 16 20 mph 1014.8mb 80f 78f
5:50pm 7ft 8s 6s 18 22 mph 1014.3mb 80f 79f
4:50pm 7ft 8s 6s 18 22 mph 1014mb 80f 79f
3:50pm 7ft 8s 6s 18 22 mph 1014.1mb 80f 79f
2:50pm 6.5ft 9s 6s 18 22 mph 1014.3mb 80f 79f
1:50pm 6.5ft 8s 6s 18 22 mph 1014.7mb 80f 79f
12:50pm 7ft 8s 6s 18 20 mph 1015.3mb 80f 78f
11:50am 6.5ft 8s 6s 18 20 mph 1015.8mb 80f 78f
10:50am 7ft 8s 6s 18 22 mph 1016.1mb 79f 78f
9:50am 7ft 9s 6s 20 22 mph 1015.9mb 79f 78f
8:50am 6.5ft 8s 6s 18 22 mph 1015.8mb 79f 78f
7:50am 6.5ft 8s 6s 20 25 mph 1015.4mb 79f 79f
6:50am 7ft 8s 6s 20 25 mph 1014.8mb 79f 78f
5:50am 6ft 9s 6s 18 22 mph 1014.4mb 79f 78f
4:50am 7ft 9s 6s 18 22 mph 1013.7mb 79f 78f
3:50am 7ft 9s 6s 18 22 mph 1013.6mb 79f 78f
2:50am 7ft 8s 6s 20 22 mph 1013.8mb 79f 78f
1:50am 7ft 8s 6s 22 27 mph 1014.1mb 79f 78f
12:50am 6ft 9s 6s 20 22 mph 1014.9mb 79f 78f
Tue 07/22 11:50pm 7.5ft 8s 6s 18 20 mph 1015.7mb 80f 78f
10:50pm 7ft 8s 6s 18 20 mph 1016.3mb 80f 78f
9:50pm 6ft 8s 6s 20 22 mph 1016.5mb 80f 78f
8:50pm 6.5ft 8s 6s 18 27 mph 1016.3mb 80f 78f
7:50pm 6.5ft 8s 6s 20 22 mph 1016mb 80f 78f
6:50pm 7.5ft 9s 6s 18 20 mph 1015.6mb 80f 76f